createdAt,value
2018-11-01T00:00:39.041Z,4.40
2018-11-01T00:01:39.028Z,4.50
2018-11-01T00:02:39.001Z,4.10
2018-11-01T00:03:38.979Z,4.00
2018-11-01T00:04:38.961Z,4.20
2018-11-01T00:05:38.937Z,4.30
2018-11-01T00:06:38.914Z,4.60
2018-11-01T00:07:38.898Z,4.20
2018-11-01T00:08:38.878Z,4.20
2018-11-01T00:09:38.853Z,3.80
2018-11-01T00:10:38.835Z,3.30
2018-11-01T00:11:38.813Z,3.20
2018-11-01T00:12:38.788Z,3.30
2018-11-01T00:13:38.768Z,3.50
2018-11-01T00:14:38.749Z,3.50
2018-11-01T00:15:38.720Z,4.50
2018-11-01T00:16:38.690Z,3.80
2018-11-01T00:17:38.667Z,4.30
2018-11-01T00:18:38.657Z,3.60
2018-11-01T00:19:38.636Z,4.00
2018-11-01T00:20:38.613Z,4.00
2018-11-01T00:21:38.577Z,4.40
2018-11-01T00:22:38.558Z,4.40
2018-11-01T00:23:38.548Z,4.70
2018-11-01T00:24:38.534Z,4.30
2018-11-01T00:25:38.513Z,5.40
2018-11-01T00:26:38.478Z,6.80
2018-11-01T00:27:38.466Z,5.60
2018-11-01T00:28:38.441Z,7.40
2018-11-01T00:29:38.430Z,6.10
2018-11-01T00:30:38.399Z,8.50
2018-11-01T00:31:38.387Z,7.60
2018-11-01T00:32:38.359Z,8.60
2018-11-01T00:33:38.321Z,9.00
2018-11-01T00:34:38.318Z,7.80
2018-11-01T00:35:38.292Z,8.70
2018-11-01T00:36:38.271Z,8.80
2018-11-01T00:37:38.254Z,9.20
2018-11-01T00:38:38.221Z,10.00
2018-11-01T00:39:38.195Z,9.70
2018-11-01T00:40:38.192Z,11.30
2018-11-01T00:41:38.153Z,9.10
2018-11-01T00:42:38.140Z,10.40
2018-11-01T00:43:38.103Z,10.60
2018-11-01T00:44:38.081Z,9.90
2018-11-01T00:45:38.081Z,10.10
2018-11-01T00:46:38.085Z,9.40
2018-11-01T00:47:38.033Z,10.40
2018-11-01T00:48:38.009Z,8.90
2018-11-01T00:49:37.990Z,8.60
2018-11-01T00:50:37.971Z,9.50
2018-11-01T00:51:37.931Z,9.50
2018-11-01T00:52:37.920Z,8.70
2018-11-01T00:53:37.906Z,9.60
2018-11-01T00:54:37.894Z,9.60
2018-11-01T00:55:37.866Z,9.70
2018-11-01T00:56:37.842Z,10.90
2018-11-01T00:57:37.800Z,10.20
2018-11-01T00:58:37.800Z,10.30
2018-11-01T00:59:37.767Z,10.00
2018-11-01T01:00:37.749Z,10.10
2018-11-01T01:01:37.730Z,10.20
2018-11-01T01:02:37.703Z,10.00
2018-11-01T01:03:37.684Z,11.40
2018-11-01T01:04:37.665Z,11.40
2018-11-01T01:05:37.641Z,11.10
2018-11-01T01:06:37.612Z,11.20
2018-11-01T01:07:37.601Z,11.00
2018-11-01T01:08:37.575Z,11.50
2018-11-01T01:09:37.555Z,18.00
2018-11-01T01:10:37.528Z,17.20
2018-11-01T01:11:37.516Z,21.30
2018-11-01T01:12:37.470Z,33.40
2018-11-01T01:13:37.465Z,43.10
2018-11-01T01:14:37.434Z,28.40
2018-11-01T01:15:37.404Z,29.00
2018-11-01T01:16:37.400Z,31.90
2018-11-01T01:17:37.364Z,26.80
2018-11-01T01:18:37.361Z,26.00
2018-11-01T01:19:37.330Z,24.90
2018-11-01T01:20:37.315Z,27.90
2018-11-01T01:21:37.289Z,33.40
2018-11-01T01:22:37.273Z,27.30
2018-11-01T01:23:37.244Z,28.90
2018-11-01T01:24:37.231Z,28.10
2018-11-01T01:25:37.203Z,23.10
2018-11-01T01:26:37.185Z,24.50
2018-11-01T01:27:37.164Z,29.30
2018-11-01T01:28:37.141Z,25.60
2018-11-01T01:29:37.116Z,30.50
2018-11-01T01:30:37.098Z,33.00
2018-11-01T01:31:37.064Z,33.00
2018-11-01T01:32:37.057Z,34.80
2018-11-01T01:33:37.025Z,40.80
2018-11-01T01:34:37.065Z,36.70
2018-11-01T01:35:36.985Z,39.60
2018-11-01T01:36:36.961Z,39.10
2018-11-01T01:37:36.946Z,33.90
2018-11-01T01:38:36.920Z,32.60
2018-11-01T01:39:36.902Z,30.20
2018-11-01T01:40:36.875Z,30.40
2018-11-01T01:41:36.857Z,28.60
2018-11-01T01:42:36.845Z,20.90
2018-11-01T01:43:36.810Z,21.80
2018-11-01T01:44:36.794Z,18.00
2018-11-01T01:45:36.769Z,17.20
2018-11-01T01:46:36.744Z,20.20
2018-11-01T01:47:36.724Z,19.30
2018-11-01T01:48:36.706Z,18.10
2018-11-01T01:49:36.683Z,16.40
2018-11-01T01:50:36.713Z,13.30
2018-11-01T01:51:36.758Z,14.60
2018-11-01T01:52:36.617Z,14.00
2018-11-01T01:53:36.600Z,15.40
2018-11-01T01:54:36.574Z,15.90
2018-11-01T01:55:36.551Z,15.90
2018-11-01T01:56:36.538Z,16.90
2018-11-01T01:57:36.493Z,16.30
2018-11-01T01:58:36.483Z,17.40
2018-11-01T01:59:36.446Z,17.00
2018-11-01T02:00:36.428Z,17.10
2018-11-01T02:01:36.422Z,16.70
2018-11-01T02:02:36.396Z,18.00
2018-11-01T02:03:36.378Z,16.90
2018-11-01T02:04:36.359Z,18.10
2018-11-01T02:05:36.334Z,16.40
2018-11-01T02:06:36.318Z,16.60
2018-11-01T02:07:36.290Z,16.90
2018-11-01T02:08:36.274Z,16.10
2018-11-01T02:09:36.233Z,15.40
2018-11-01T02:10:36.216Z,14.40
2018-11-01T02:11:36.217Z,16.10
2018-11-01T02:12:36.172Z,16.20
2018-11-01T02:13:36.164Z,16.10
2018-11-01T02:14:36.134Z,15.20
2018-11-01T02:15:36.117Z,14.80
2018-11-01T02:16:36.100Z,15.10
2018-11-01T02:17:36.100Z,14.80
2018-11-01T02:18:36.047Z,15.10
2018-11-01T02:19:36.029Z,14.80
2018-11-01T02:20:36.002Z,15.40
2018-11-01T02:21:35.973Z,14.60
2018-11-01T02:22:35.969Z,13.10
2018-11-01T02:23:35.945Z,11.20
2018-11-01T02:24:35.928Z,12.00
2018-11-01T02:25:35.905Z,12.00
2018-11-01T02:26:35.882Z,9.60
2018-11-01T02:27:35.860Z,11.10
2018-11-01T02:28:35.837Z,10.40
2018-11-01T02:29:35.815Z,10.20
2018-11-01T02:30:35.798Z,10.60
2018-11-01T02:31:35.776Z,11.10
2018-11-01T02:32:35.750Z,11.30
2018-11-01T02:33:35.729Z,12.40
2018-11-01T02:34:35.713Z,10.60
2018-11-01T02:35:35.690Z,9.90
2018-11-01T02:36:35.665Z,12.70
2018-11-01T02:37:35.625Z,10.90
2018-11-01T02:38:35.718Z,13.20
2018-11-01T02:39:35.585Z,13.30
2018-11-01T02:40:35.576Z,11.80
2018-11-01T02:41:35.560Z,13.80
2018-11-01T02:42:35.538Z,11.90
2018-11-01T02:43:35.508Z,12.50
2018-11-01T02:44:35.495Z,12.40
2018-11-01T02:45:35.473Z,12.60
2018-11-01T02:46:35.450Z,11.50
2018-11-01T02:47:35.423Z,11.50
2018-11-01T02:48:35.402Z,11.30
2018-11-01T02:49:35.378Z,11.00
2018-11-01T02:50:35.362Z,12.30
2018-11-01T02:51:35.339Z,11.90
2018-11-01T02:52:35.314Z,11.50
2018-11-01T02:53:35.294Z,12.10
2018-11-01T02:54:35.276Z,11.00
2018-11-01T02:55:35.234Z,9.80
2018-11-01T02:56:35.231Z,10.10
2018-11-01T02:57:35.215Z,11.10
2018-11-01T02:58:35.188Z,11.10
2018-11-01T02:59:35.280Z,9.80
2018-11-01T03:00:35.144Z,12.50
2018-11-01T03:01:35.104Z,11.80
2018-11-01T03:02:35.095Z,12.10
2018-11-01T03:03:35.058Z,12.10
2018-11-01T03:04:35.037Z,12.80
2018-11-01T03:05:35.033Z,13.20
2018-11-01T03:06:34.996Z,13.60
2018-11-01T03:07:34.997Z,12.30
2018-11-01T03:08:34.963Z,13.60
2018-11-01T03:09:34.939Z,11.60
2018-11-01T03:10:34.920Z,12.20
2018-11-01T03:11:34.898Z,12.60
2018-11-01T03:12:34.878Z,12.40
2018-11-01T03:13:34.836Z,12.90
2018-11-01T03:14:34.815Z,12.00
2018-11-01T03:15:34.810Z,13.00
2018-11-01T03:16:34.791Z,13.30
2018-11-01T03:17:34.768Z,13.00
2018-11-01T03:18:34.748Z,13.70
2018-11-01T03:19:34.718Z,14.10
2018-11-01T03:20:34.693Z,11.80
2018-11-01T03:21:34.753Z,14.60
2018-11-01T03:22:34.639Z,12.80
2018-11-01T03:23:34.620Z,12.40
2018-11-01T03:24:34.599Z,13.10
2018-11-01T03:25:34.590Z,13.60
2018-11-01T03:26:34.629Z,13.10
2018-11-01T03:27:34.544Z,14.00
2018-11-01T03:28:34.522Z,13.50
2018-11-01T03:29:34.504Z,13.70
2018-11-01T03:30:34.479Z,12.80
2018-11-01T03:31:34.457Z,13.30
2018-11-01T03:32:34.439Z,13.40
2018-11-01T03:33:34.423Z,13.10
2018-11-01T03:34:34.397Z,13.80
2018-11-01T03:35:34.410Z,13.40
2018-11-01T03:36:34.358Z,13.20
2018-11-01T03:37:34.328Z,14.10
2018-11-01T03:38:34.455Z,12.70
2018-11-01T03:39:34.286Z,12.70
2018-11-01T03:40:34.250Z,12.00
2018-11-01T03:41:34.244Z,12.10
2018-11-01T03:42:34.214Z,11.00
2018-11-01T03:43:34.186Z,11.70
2018-11-01T03:44:34.181Z,11.60
2018-11-01T03:45:34.161Z,11.50
2018-11-01T03:46:34.129Z,12.70
2018-11-01T03:47:34.107Z,11.90
2018-11-01T03:48:34.096Z,11.70
2018-11-01T03:49:34.064Z,12.10
2018-11-01T03:50:34.044Z,11.40
2018-11-01T03:51:34.019Z,11.90
2018-11-01T03:52:34.003Z,11.60
2018-11-01T03:53:34.189Z,10.90
2018-11-01T03:54:34.004Z,11.10
2018-11-01T03:55:33.942Z,11.80
2018-11-01T03:56:33.912Z,12.20
2018-11-01T03:57:33.895Z,12.80
2018-11-01T03:58:33.864Z,11.90
2018-11-01T03:59:33.864Z,12.10
2018-11-01T04:00:33.821Z,12.00
2018-11-01T04:01:33.805Z,11.30
2018-11-01T04:02:33.778Z,11.00
2018-11-01T04:03:33.784Z,11.90
2018-11-01T04:04:33.743Z,10.90
2018-11-01T04:05:33.711Z,12.30
2018-11-01T04:06:33.681Z,11.20
2018-11-01T04:07:33.655Z,11.70
2018-11-01T04:08:33.648Z,12.20
2018-11-01T04:09:33.631Z,11.80
2018-11-01T04:10:33.604Z,11.70
2018-11-01T04:11:33.579Z,11.90
2018-11-01T04:12:33.561Z,11.20
2018-11-01T04:13:33.616Z,8.30
2018-11-01T04:14:33.518Z,8.70
2018-11-01T04:15:33.498Z,7.40
2018-11-01T04:16:33.470Z,7.60
2018-11-01T04:17:33.456Z,7.40
2018-11-01T04:18:33.415Z,6.80
2018-11-01T04:19:33.401Z,7.70
2018-11-01T04:20:33.384Z,7.30
2018-11-01T04:21:33.357Z,6.70
2018-11-01T04:22:33.341Z,6.00
2018-11-01T04:23:33.455Z,6.10
2018-11-01T04:24:33.301Z,6.20
2018-11-01T04:25:33.284Z,7.10
2018-11-01T04:26:33.249Z,7.40
2018-11-01T04:27:33.223Z,6.90
2018-11-01T04:28:33.196Z,6.50
2018-11-01T04:29:33.193Z,6.40
2018-11-01T04:30:33.151Z,6.30
2018-11-01T04:31:33.139Z,7.50
2018-11-01T04:32:33.118Z,6.50
2018-11-01T04:33:33.215Z,7.30
2018-11-01T04:34:33.076Z,6.60
2018-11-01T04:35:33.074Z,6.90
2018-11-01T04:36:33.035Z,8.20
2018-11-01T04:37:33.013Z,8.40
2018-11-01T04:38:32.989Z,7.00
2018-11-01T04:39:32.968Z,7.50
2018-11-01T04:40:33.022Z,7.40
2018-11-01T04:41:32.928Z,6.90
2018-11-01T04:42:32.901Z,7.30
2018-11-01T04:43:32.889Z,7.50
2018-11-01T04:44:32.846Z,8.50
2018-11-01T04:45:32.824Z,9.90
2018-11-01T04:46:32.804Z,9.60
2018-11-01T04:47:32.862Z,9.40
2018-11-01T04:48:32.757Z,9.60
2018-11-01T04:49:32.747Z,9.40
2018-11-01T04:50:32.728Z,9.80
2018-11-01T04:51:32.708Z,9.30
2018-11-01T04:52:32.684Z,9.20
2018-11-01T04:53:32.655Z,9.10
2018-11-01T04:54:32.636Z,9.00
2018-11-01T04:55:32.619Z,7.60
2018-11-01T04:56:32.597Z,8.10
2018-11-01T04:57:32.580Z,8.50
2018-11-01T04:58:32.551Z,7.70
2018-11-01T04:59:32.534Z,8.10
2018-11-01T05:00:32.514Z,8.40
2018-11-01T05:01:32.491Z,7.50
2018-11-01T05:02:32.466Z,8.20
2018-11-01T05:03:32.485Z,7.90
2018-11-01T05:04:32.419Z,7.10
2018-11-01T05:05:32.400Z,7.70
2018-11-01T05:06:32.385Z,7.80
2018-11-01T05:07:32.359Z,7.90
2018-11-01T05:08:32.341Z,7.90
2018-11-01T05:09:32.296Z,7.40
2018-11-01T05:10:32.285Z,7.20
2018-11-01T05:11:32.412Z,7.50
2018-11-01T05:12:32.246Z,7.90
2018-11-01T05:13:32.221Z,7.80
2018-11-01T05:14:32.196Z,7.50
2018-11-01T05:15:32.178Z,8.40
2018-11-01T05:16:32.156Z,10.00
2018-11-01T05:17:32.137Z,9.20
2018-11-01T05:18:32.109Z,9.10
2018-11-01T05:19:32.091Z,8.90
2018-11-01T05:20:32.067Z,9.00
2018-11-01T05:21:32.047Z,8.80
2018-11-01T05:22:32.010Z,8.10
2018-11-01T05:23:31.985Z,8.40
2018-11-01T05:24:31.984Z,8.60
2018-11-01T05:25:31.959Z,9.10
2018-11-01T05:26:31.928Z,9.60
2018-11-01T05:27:31.913Z,9.60
2018-11-01T05:28:31.889Z,9.50
2018-11-01T05:29:31.904Z,9.20
2018-11-01T05:30:31.844Z,9.30
2018-11-01T05:31:31.815Z,9.70
2018-11-01T05:32:31.803Z,8.90
2018-11-01T05:33:31.781Z,9.60
2018-11-01T05:34:31.811Z,9.90
2018-11-01T05:35:31.735Z,10.00
2018-11-01T05:36:31.702Z,9.90
2018-11-01T05:37:31.698Z,9.70
2018-11-01T05:38:31.674Z,9.60
2018-11-01T05:39:31.657Z,9.10
2018-11-01T05:40:31.629Z,8.40
2018-11-01T05:41:31.609Z,9.10
2018-11-01T05:42:31.586Z,9.30
2018-11-01T05:43:31.562Z,9.40
2018-11-01T05:44:31.540Z,10.00
2018-11-01T05:45:31.516Z,10.00
2018-11-01T05:46:31.488Z,8.60
2018-11-01T05:47:31.468Z,9.10
2018-11-01T05:48:31.450Z,9.00
2018-11-01T05:49:31.432Z,9.80
2018-11-01T05:50:31.404Z,9.00
2018-11-01T05:51:31.387Z,9.10
2018-11-01T05:52:31.353Z,9.60
2018-11-01T05:53:31.349Z,9.80
2018-11-01T05:54:31.323Z,9.30
2018-11-01T05:55:31.298Z,10.30
2018-11-01T05:56:31.274Z,10.40
2018-11-01T05:57:31.256Z,9.90
2018-11-01T05:58:31.232Z,10.90
2018-11-01T05:59:31.208Z,10.00
2018-11-01T06:00:31.189Z,10.60
2018-11-01T06:01:31.170Z,10.80
2018-11-01T06:02:31.147Z,10.30
2018-11-01T06:03:31.121Z,10.00
2018-11-01T06:04:31.101Z,10.50
2018-11-01T06:05:31.094Z,10.30
2018-11-01T06:06:31.045Z,10.50
2018-11-01T06:07:31.036Z,11.20
2018-11-01T06:08:31.012Z,10.30
2018-11-01T06:09:30.989Z,11.00
2018-11-01T06:10:30.971Z,10.80
2018-11-01T06:11:30.934Z,9.90
2018-11-01T06:12:31.092Z,9.80
2018-11-01T06:13:30.888Z,9.80
2018-11-01T06:14:30.865Z,10.20
2018-11-01T06:15:30.843Z,10.40
2018-11-01T06:16:30.825Z,10.90
2018-11-01T06:17:30.817Z,10.10
2018-11-01T06:18:30.788Z,12.10
2018-11-01T06:19:30.771Z,11.40
2018-11-01T06:20:30.782Z,12.10
2018-11-01T06:21:30.723Z,10.70
2018-11-01T06:22:30.702Z,9.70
2018-11-01T06:23:30.680Z,10.60
2018-11-01T06:24:30.660Z,10.40
2018-11-01T06:25:30.622Z,10.00
2018-11-01T06:26:30.613Z,10.40
2018-11-01T06:27:30.590Z,10.00
2018-11-01T06:28:30.560Z,10.30
2018-11-01T06:29:30.560Z,11.10
2018-11-01T06:30:30.628Z,10.50
2018-11-01T06:31:30.512Z,11.20
2018-11-01T06:32:30.483Z,11.30
2018-11-01T06:33:30.442Z,11.30
2018-11-01T06:34:30.429Z,10.70
2018-11-01T06:35:30.408Z,11.50
2018-11-01T06:36:30.381Z,11.50
2018-11-01T06:37:30.381Z,10.80
2018-11-01T06:38:30.354Z,11.40
2018-11-01T06:39:30.322Z,10.90
2018-11-01T06:40:30.292Z,11.50
2018-11-01T06:41:30.286Z,10.90
2018-11-01T06:42:30.262Z,11.50
2018-11-01T06:43:30.239Z,11.40
2018-11-01T06:44:30.238Z,9.90
2018-11-01T06:45:30.198Z,10.40
2018-11-01T06:46:30.176Z,10.60
2018-11-01T06:47:30.159Z,10.90
2018-11-01T06:48:30.138Z,10.30
2018-11-01T06:49:30.106Z,10.10
2018-11-01T06:50:30.082Z,10.70
2018-11-01T06:51:30.071Z,10.30
2018-11-01T06:52:30.073Z,10.50
2018-11-01T06:53:30.021Z,10.70
2018-11-01T06:54:29.984Z,11.00
2018-11-01T06:55:29.971Z,11.10
2018-11-01T06:56:29.935Z,10.90
2018-11-01T06:57:29.933Z,11.70
2018-11-01T06:58:30.167Z,11.10
2018-11-01T06:59:29.943Z,11.10
2018-11-01T07:00:29.862Z,11.90
2018-11-01T07:01:29.847Z,12.70
2018-11-01T07:02:29.822Z,13.70
2018-11-01T07:03:29.801Z,12.60
2018-11-01T07:04:29.778Z,13.40
2018-11-01T07:05:29.797Z,14.20
2018-11-01T07:06:29.728Z,14.60
2018-11-01T07:07:29.712Z,13.60
2018-11-01T07:08:29.696Z,14.20
2018-11-01T07:09:29.662Z,18.90
2018-11-01T07:10:29.631Z,16.50
2018-11-01T07:11:29.730Z,16.40
2018-11-01T07:12:29.595Z,20.20
2018-11-01T07:13:29.579Z,19.30
2018-11-01T07:14:29.551Z,20.10
2018-11-01T07:15:29.513Z,18.90
2018-11-01T07:16:29.504Z,18.60
2018-11-01T07:17:29.630Z,19.10
2018-11-01T07:18:29.462Z,19.00
2018-11-01T07:19:29.424Z,17.50
2018-11-01T07:20:29.408Z,17.90
2018-11-01T07:21:29.396Z,15.50
2018-11-01T07:22:29.378Z,14.30
2018-11-01T07:23:29.384Z,13.70
2018-11-01T07:24:29.330Z,14.30
2018-11-01T07:25:29.428Z,13.20
2018-11-01T07:26:29.288Z,13.60
2018-11-01T07:27:29.260Z,13.30
2018-11-01T07:28:29.244Z,14.10
2018-11-01T07:29:29.211Z,13.80
2018-11-01T07:30:29.206Z,13.80
2018-11-01T07:31:29.161Z,15.50
2018-11-01T07:32:29.167Z,14.50
2018-11-01T07:33:29.128Z,14.30
2018-11-01T07:34:29.094Z,13.20
2018-11-01T07:35:29.082Z,12.30
2018-11-01T07:36:29.058Z,12.30
2018-11-01T07:37:29.027Z,10.80
2018-11-01T07:38:29.019Z,10.40
2018-11-01T07:39:28.994Z,10.10
2018-11-01T07:40:28.970Z,13.50
2018-11-01T07:41:28.952Z,13.10
2018-11-01T07:42:28.927Z,12.40
2018-11-01T07:44:02.111Z,12.60
2018-11-01T07:44:28.888Z,12.80
2018-11-01T07:45:28.867Z,13.80
2018-11-01T07:46:28.839Z,13.60
2018-11-01T07:47:28.819Z,14.50
2018-11-01T07:48:28.849Z,15.20
2018-11-01T07:49:28.779Z,16.00
2018-11-01T07:50:28.752Z,14.80
2018-11-01T07:51:28.736Z,15.10
2018-11-01T07:52:28.704Z,12.70
2018-11-01T07:53:28.677Z,12.50
2018-11-01T07:54:28.654Z,11.00
2018-11-01T07:55:28.632Z,12.70
2018-11-01T07:56:28.617Z,12.70
2018-11-01T07:57:28.590Z,12.00
2018-11-01T07:58:28.642Z,11.90
2018-11-01T07:59:28.552Z,11.30
2018-11-01T08:00:28.528Z,11.70
2018-11-01T08:01:28.504Z,12.00
2018-11-01T08:02:28.480Z,10.90
2018-11-01T08:03:28.463Z,11.90
2018-11-01T08:04:28.439Z,12.10
2018-11-01T08:05:28.462Z,17.30
2018-11-01T08:06:28.398Z,22.10
2018-11-01T08:07:28.370Z,21.90
2018-11-01T08:08:28.349Z,17.00
2018-11-01T08:09:28.329Z,15.70
2018-11-01T08:10:28.301Z,12.80
2018-11-01T08:11:28.331Z,11.60
2018-11-01T08:12:28.256Z,10.30
2018-11-01T08:13:28.237Z,10.00
2018-11-01T08:14:28.219Z,10.10
2018-11-01T08:15:28.191Z,10.10
2018-11-01T08:16:28.168Z,9.60
2018-11-01T08:17:28.146Z,11.10
2018-11-01T08:18:28.126Z,9.20
2018-11-01T08:19:28.132Z,10.00
2018-11-01T08:20:28.150Z,9.60
2018-11-01T08:21:28.063Z,9.80
2018-11-01T08:22:28.028Z,9.70
2018-11-01T08:23:28.020Z,9.00
2018-11-01T08:24:27.992Z,10.10
2018-11-01T08:25:27.970Z,9.20
2018-11-01T08:26:27.946Z,9.20
2018-11-01T08:27:27.927Z,9.40
2018-11-01T08:28:27.905Z,9.40
2018-11-01T08:29:27.882Z,9.40
2018-11-01T08:30:27.856Z,8.80
2018-11-01T08:31:27.833Z,9.30
2018-11-01T08:32:27.809Z,8.50
2018-11-01T08:33:27.788Z,10.90
2018-11-01T08:34:27.763Z,9.30
2018-11-01T08:35:27.727Z,8.90
2018-11-01T08:36:27.724Z,9.30
2018-11-01T08:37:27.705Z,9.60
2018-11-01T08:38:27.675Z,9.50
2018-11-01T08:39:27.713Z,9.20
2018-11-01T08:40:27.637Z,10.00
2018-11-01T08:41:27.590Z,9.20
2018-11-01T08:42:27.572Z,10.00
2018-11-01T08:43:27.569Z,9.50
2018-11-01T08:44:27.541Z,10.60
2018-11-01T08:45:27.523Z,11.00
2018-11-01T08:46:27.484Z,11.10
2018-11-01T08:47:27.473Z,8.90
2018-11-01T08:48:27.455Z,9.30
2018-11-01T08:49:27.431Z,10.40
2018-11-01T08:50:27.414Z,10.60
2018-11-01T08:51:27.385Z,10.60
2018-11-01T08:52:27.367Z,10.90
2018-11-01T08:53:27.343Z,10.60
2018-11-01T08:54:27.318Z,10.50
2018-11-01T08:55:27.296Z,11.50
2018-11-01T08:56:27.275Z,12.10
2018-11-01T08:57:27.253Z,13.20
2018-11-01T08:58:27.233Z,12.60
2018-11-01T08:59:27.209Z,14.40
2018-11-01T09:00:27.187Z,13.60
2018-11-01T09:01:27.161Z,12.20
2018-11-01T09:02:27.145Z,12.60
2018-11-01T09:03:27.111Z,13.10
2018-11-01T09:04:27.104Z,12.30
2018-11-01T09:05:27.082Z,12.20
2018-11-01T09:06:27.060Z,12.40
2018-11-01T09:07:27.059Z,12.30
2018-11-01T09:08:27.010Z,11.30
2018-11-01T09:09:26.991Z,11.30
2018-11-01T09:10:27.044Z,11.70
2018-11-01T09:11:26.948Z,11.50
2018-11-01T09:12:26.926Z,10.00
2018-11-01T09:13:26.953Z,8.60
2018-11-01T09:14:26.996Z,9.50
2018-11-01T09:15:26.860Z,8.80
2018-11-01T09:16:26.827Z,8.60
2018-11-01T09:17:26.819Z,8.60
2018-11-01T09:18:26.798Z,8.30
2018-11-01T09:19:26.867Z,8.50
2018-11-01T09:20:26.754Z,8.10
2018-11-01T09:21:26.730Z,7.90
2018-11-01T09:22:26.707Z,8.10
2018-11-01T09:23:26.673Z,7.40
2018-11-01T09:24:26.649Z,7.70
2018-11-01T09:25:26.640Z,8.20
2018-11-01T09:26:26.611Z,8.00
2018-11-01T09:27:26.596Z,7.00
2018-11-01T09:28:26.581Z,7.10
2018-11-01T09:29:26.541Z,7.40
2018-11-01T09:30:26.532Z,7.20
2018-11-01T09:31:26.523Z,7.30
2018-11-01T09:32:26.498Z,7.60
2018-11-01T09:33:26.468Z,7.40
2018-11-01T09:34:26.447Z,7.20
2018-11-01T09:35:26.433Z,7.40
2018-11-01T09:36:26.407Z,6.90
2018-11-01T09:37:26.385Z,7.90
2018-11-01T09:38:26.369Z,8.30
2018-11-01T09:39:26.346Z,7.40
2018-11-01T09:40:26.326Z,7.70
2018-11-01T09:41:26.305Z,7.70
2018-11-01T09:42:26.269Z,8.30
2018-11-01T09:43:26.260Z,7.70
2018-11-01T09:44:26.248Z,6.60
2018-11-01T09:45:26.220Z,6.90
2018-11-01T09:46:26.328Z,6.70
2018-11-01T09:47:26.712Z,6.70
2018-11-01T09:48:26.160Z,7.30
2018-11-01T09:49:26.123Z,5.90
2018-11-01T09:50:26.116Z,7.20
2018-11-01T09:51:26.102Z,7.90
2018-11-01T09:52:26.078Z,7.60
2018-11-01T09:53:26.053Z,7.30
2018-11-01T09:54:26.022Z,7.30
2018-11-01T09:55:26.034Z,6.90
2018-11-01T09:56:26.041Z,6.60
2018-11-01T09:57:25.954Z,6.60
2018-11-01T09:58:25.935Z,6.60
2018-11-01T09:59:25.935Z,7.00
2018-11-01T10:00:25.915Z,6.10
2018-11-01T10:01:25.895Z,5.80
2018-11-01T10:02:25.871Z,6.40
2018-11-01T10:03:25.847Z,5.40
2018-11-01T10:04:25.832Z,6.00
2018-11-01T10:05:25.816Z,5.70
2018-11-01T10:06:25.796Z,6.00
2018-11-01T10:07:25.773Z,5.50
2018-11-01T10:08:25.731Z,6.10
2018-11-01T10:09:25.715Z,5.30
2018-11-01T10:10:25.707Z,5.20
2018-11-01T10:11:25.670Z,6.00
2018-11-01T10:12:25.670Z,5.30
2018-11-01T10:13:25.660Z,5.20
2018-11-01T10:14:25.640Z,6.20
2018-11-01T10:15:25.779Z,5.70
2018-11-01T10:16:25.725Z,5.30
2018-11-01T10:17:26.189Z,5.40
2018-11-01T10:18:26.005Z,5.20
2018-11-01T10:19:25.525Z,5.20
2018-11-01T10:20:25.523Z,5.80
2018-11-01T10:21:25.580Z,5.40
2018-11-01T10:22:25.514Z,6.10
2018-11-01T10:23:25.453Z,5.00
2018-11-01T10:24:25.447Z,5.70
2018-11-01T10:25:25.550Z,5.70
2018-11-01T10:26:25.418Z,5.90
2018-11-01T10:27:25.421Z,6.20
2018-11-01T10:28:25.383Z,5.50
2018-11-01T10:29:25.372Z,6.20
2018-11-01T10:30:25.351Z,5.90
2018-11-01T10:31:25.342Z,6.10
2018-11-01T10:32:25.317Z,6.10
2018-11-01T10:33:25.289Z,5.90
2018-11-01T10:34:25.289Z,5.80
2018-11-01T10:35:25.270Z,5.80
2018-11-01T10:36:25.254Z,6.20
2018-11-01T10:37:25.217Z,5.70
2018-11-01T10:38:25.221Z,5.60
2018-11-01T10:39:25.187Z,5.50
2018-11-01T10:40:25.184Z,6.30
2018-11-01T10:41:25.170Z,5.10
2018-11-01T10:42:25.155Z,5.90
2018-11-01T10:43:25.140Z,5.60
2018-11-01T10:44:25.125Z,5.90
2018-11-01T10:45:25.112Z,6.00
2018-11-01T10:46:25.086Z,6.50
2018-11-01T10:47:25.090Z,6.40
2018-11-01T10:48:25.058Z,6.90
2018-11-01T10:49:25.038Z,8.30
2018-11-01T10:50:25.023Z,7.90
2018-11-01T10:51:25.007Z,8.00
2018-11-01T10:52:24.992Z,7.90
2018-11-01T10:53:24.961Z,8.90
2018-11-01T10:54:25.060Z,7.50
2018-11-01T10:55:24.942Z,8.50
2018-11-01T10:56:24.925Z,8.50
2018-11-01T10:57:24.910Z,7.80
2018-11-01T10:58:24.872Z,8.20
2018-11-01T10:59:24.866Z,8.40
2018-11-01T11:00:25.010Z,7.50
2018-11-01T11:01:24.839Z,8.20
2018-11-01T11:02:24.825Z,7.60
2018-11-01T11:03:24.808Z,8.10
2018-11-01T11:04:24.786Z,8.20
2018-11-01T11:05:24.766Z,8.00
2018-11-01T11:06:24.799Z,7.90
2018-11-01T11:07:24.723Z,7.70
2018-11-01T11:08:24.723Z,7.90
2018-11-01T11:09:24.702Z,8.20
2018-11-01T11:10:24.684Z,7.60
2018-11-01T11:11:24.666Z,6.80
2018-11-01T11:12:24.649Z,7.00
2018-11-01T11:13:24.639Z,6.70
2018-11-01T11:14:24.666Z,6.40
2018-11-01T11:15:24.589Z,5.80
2018-11-01T11:16:24.577Z,5.40
2018-11-01T11:17:24.571Z,5.60
2018-11-01T11:18:24.560Z,5.20
2018-11-01T11:19:24.541Z,5.90
2018-11-01T11:20:24.651Z,5.20
2018-11-01T11:21:24.519Z,5.60
2018-11-01T11:22:24.489Z,5.70
2018-11-01T11:23:24.468Z,5.30
2018-11-01T11:24:24.473Z,5.50
2018-11-01T11:25:24.468Z,5.20
2018-11-01T11:26:24.441Z,6.00
2018-11-01T11:27:24.426Z,5.40
2018-11-01T11:28:24.414Z,4.60
2018-11-01T11:29:24.402Z,5.20
2018-11-01T11:30:24.585Z,4.80
2018-11-01T11:31:24.374Z,5.30
2018-11-01T11:32:24.361Z,5.60
2018-11-01T11:33:24.350Z,5.30
2018-11-01T11:34:24.337Z,6.30
2018-11-01T11:35:24.365Z,6.20
2018-11-01T11:36:24.307Z,5.90
2018-11-01T11:37:24.294Z,5.30
2018-11-01T11:38:24.278Z,4.70
2018-11-01T11:39:24.329Z,4.80
2018-11-01T11:40:24.254Z,5.00
2018-11-01T11:41:24.235Z,4.90
2018-11-01T11:42:24.211Z,4.80
2018-11-01T11:43:24.204Z,5.40
2018-11-01T11:44:24.199Z,5.50
2018-11-01T11:45:24.182Z,5.80
2018-11-01T11:46:24.165Z,5.80
2018-11-01T11:47:24.155Z,5.30
2018-11-01T11:48:24.316Z,5.50
2018-11-01T11:49:24.127Z,5.70
2018-11-01T11:50:24.111Z,5.00
2018-11-01T11:51:24.160Z,6.50
2018-11-01T11:52:24.091Z,5.50
2018-11-01T11:53:24.076Z,6.30
2018-11-01T11:54:24.062Z,5.80
2018-11-01T11:55:24.051Z,5.70
2018-11-01T11:56:24.019Z,6.40
2018-11-01T11:57:24.023Z,6.00
2018-11-01T11:58:24.012Z,5.90
2018-11-01T11:59:23.998Z,5.50
2018-11-01T12:00:23.986Z,7.20
2018-11-01T12:01:23.976Z,9.20
2018-11-01T12:02:24.066Z,9.40
2018-11-01T12:03:23.946Z,9.30
2018-11-01T12:04:23.915Z,9.90
2018-11-01T12:05:23.958Z,9.70
2018-11-01T12:06:24.089Z,9.20
2018-11-01T12:07:23.900Z,7.60
2018-11-01T12:08:23.890Z,8.50
2018-11-01T12:09:23.874Z,9.00
2018-11-01T12:10:23.863Z,7.90
2018-11-01T12:11:23.857Z,8.20
2018-11-01T12:12:23.840Z,8.20
2018-11-01T12:13:23.834Z,8.50
2018-11-01T12:14:23.830Z,8.60
2018-11-01T12:15:23.805Z,8.70
2018-11-01T12:16:23.782Z,8.10
2018-11-01T12:17:23.772Z,8.20
2018-11-01T12:18:23.754Z,7.70
2018-11-01T12:19:23.756Z,8.70
2018-11-01T12:20:23.752Z,8.20
2018-11-01T12:21:23.723Z,8.20
2018-11-01T12:22:23.863Z,7.90
2018-11-01T12:23:23.723Z,7.80
2018-11-01T12:24:23.687Z,5.90
2018-11-01T12:25:23.691Z,6.40
2018-11-01T12:26:23.682Z,6.60
2018-11-01T12:27:23.657Z,6.70
2018-11-01T12:28:23.792Z,6.50
2018-11-01T12:29:23.638Z,7.10
2018-11-01T12:30:23.618Z,6.30
2018-11-01T12:31:23.619Z,5.60
2018-11-01T12:32:23.600Z,5.50
2018-11-01T12:33:23.592Z,5.90
2018-11-01T12:34:23.576Z,6.60
2018-11-01T12:35:23.592Z,5.30
2018-11-01T12:36:23.555Z,5.90
2018-11-01T12:37:23.537Z,5.80
2018-11-01T12:38:23.528Z,5.10
2018-11-01T12:39:23.519Z,5.50
2018-11-01T12:40:23.496Z,5.80
2018-11-01T12:41:23.489Z,5.20
2018-11-01T12:42:23.468Z,5.20
2018-11-01T12:43:23.458Z,4.50
2018-11-01T12:44:23.433Z,4.90
2018-11-01T12:45:23.436Z,4.80
2018-11-01T12:46:23.403Z,4.60
2018-11-01T12:47:23.407Z,5.10
2018-11-01T12:48:23.399Z,4.80
2018-11-01T12:49:23.387Z,4.70
2018-11-01T12:50:23.483Z,5.70
2018-11-01T12:51:23.362Z,5.90
2018-11-01T12:52:23.346Z,5.70
2018-11-01T12:53:23.332Z,6.50
2018-11-01T12:54:23.322Z,6.00
2018-11-01T12:55:23.301Z,5.50
2018-11-01T12:56:23.345Z,6.20
2018-11-01T12:57:23.286Z,6.80
2018-11-01T12:58:23.278Z,5.50
2018-11-01T12:59:23.266Z,5.40
2018-11-01T13:00:23.240Z,5.10
2018-11-01T13:01:23.238Z,5.50
2018-11-01T13:02:23.273Z,5.70
2018-11-01T13:03:23.223Z,5.60
2018-11-01T13:04:23.215Z,5.40
2018-11-01T13:05:23.221Z,5.40
2018-11-01T13:06:23.178Z,5.50